sensor_id;sensor_type;location;lat;lon;timestamp;temperature;humidity
74384;DHT22;62824;52.994;-3.936;2022-12-18T00:01:33;2.70;99.90
74384;DHT22;62824;52.994;-3.936;2022-12-18T00:04:01;2.60;99.90
74384;DHT22;62824;52.994;-3.936;2022-12-18T00:06:29;2.60;99.90
74384;DHT22;62824;52.994;-3.936;2022-12-18T00:08:56;2.60;99.90
74384;DHT22;62824;52.994;-3.936;2022-12-18T00:11:25;2.60;99.90
74384;DHT22;62824;52.994;-3.936;2022-12-18T00:13:53;2.60;99.90
74384;DHT22;62824;52.994;-3.936;2022-12-18T00:16:21;2.60;99.90
74384;DHT22;62824;52.994;-3.936;2022-12-18T00:18:52;2.50;99.90
74384;DHT22;62824;52.994;-3.936;2022-12-18T00:21:19;2.50;99.90
74384;DHT22;62824;52.994;-3.936;2022-12-18T00:23:46;2.50;99.90
74384;DHT22;62824;52.994;-3.936;2022-12-18T00:26:18;2.60;99.90
74384;DHT22;62824;52.994;-3.936;2022-12-18T00:28:45;2.60;99.90
74384;DHT22;62824;52.994;-3.936;2022-12-18T00:31:16;2.60;99.90
74384;DHT22;62824;52.994;-3.936;2022-12-18T00:33:42;2.50;99.90
74384;DHT22;62824;52.994;-3.936;2022-12-18T00:36:12;2.50;99.90
74384;DHT22;62824;52.994;-3.936;2022-12-18T00:38:39;2.50;99.90
74384;DHT22;62824;52.994;-3.936;2022-12-18T00:41:05;2.40;99.90
74384;DHT22;62824;52.994;-3.936;2022-12-18T00:43:34;2.40;99.90
74384;DHT22;62824;52.994;-3.936;2022-12-18T00:46:00;2.40;99.90
74384;DHT22;62824;52.994;-3.936;2022-12-18T00:48:26;2.40;99.90
74384;DHT22;62824;52.994;-3.936;2022-12-18T00:50:51;2.30;99.90
74384;DHT22;62824;52.994;-3.936;2022-12-18T00:53:17;2.30;99.90
74384;DHT22;62824;52.994;-3.936;2022-12-18T00:55:44;2.20;99.90
74384;DHT22;62824;52.994;-3.936;2022-12-18T00:58:12;2.20;99.90
74384;DHT22;62824;52.994;-3.936;2022-12-18T01:00:38;2.20;99.90
74384;DHT22;62824;52.994;-3.936;2022-12-18T01:03:05;2.20;99.90
74384;DHT22;62824;52.994;-3.936;2022-12-18T01:05:31;2.30;99.90
74384;DHT22;62824;52.994;-3.936;2022-12-18T01:07:57;2.30;99.90
74384;DHT22;62824;52.994;-3.936;2022-12-18T01:10:24;2.30;99.90
74384;DHT22;62824;52.994;-3.936;2022-12-18T01:12:50;2.40;99.90
74384;DHT22;62824;52.994;-3.936;2022-12-18T01:15:17;2.40;99.90
74384;DHT22;62824;52.994;-3.936;2022-12-18T01:17:43;2.40;99.90
74384;DHT22;62824;52.994;-3.936;2022-12-18T01:20:11;2.40;99.90
74384;DHT22;62824;52.994;-3.936;2022-12-18T01:22:37;2.40;99.90
74384;DHT22;62824;52.994;-3.936;2022-12-18T01:25:22;2.40;99.90
74384;DHT22;62824;52.994;-3.936;2022-12-18T01:27:47;2.40;99.90
74384;DHT22;62824;52.994;-3.936;2022-12-18T01:30:13;2.40;99.90
74384;DHT22;62824;52.994;-3.936;2022-12-18T01:32:39;2.30;99.90
74384;DHT22;62824;52.994;-3.936;2022-12-18T01:35:06;2.30;99.90
74384;DHT22;62824;52.994;-3.936;2022-12-18T01:37:32;2.30;99.90
74384;DHT22;62824;52.994;-3.936;2022-12-18T01:39:58;2.20;99.90
74384;DHT22;62824;52.994;-3.936;2022-12-18T01:42:23;2.10;99.90
74384;DHT22;62824;52.994;-3.936;2022-12-18T01:45:25;2.00;99.90
74384;DHT22;62824;52.994;-3.936;2022-12-18T01:47:59;1.90;99.90
74384;DHT22;62824;52.994;-3.936;2022-12-18T01:50:42;1.90;99.90
74384;DHT22;62824;52.994;-3.936;2022-12-18T01:53:13;1.90;99.90
74384;DHT22;62824;52.994;-3.936;2022-12-18T01:55:48;1.90;99.90
74384;DHT22;62824;52.994;-3.936;2022-12-18T01:58:15;1.80;99.90
74384;DHT22;62824;52.994;-3.936;2022-12-18T02:00:41;1.80;99.90
74384;DHT22;62824;52.994;-3.936;2022-12-18T02:03:07;1.80;99.90
74384;DHT22;62824;52.994;-3.936;2022-12-18T02:08:24;1.80;99.90
74384;DHT22;62824;52.994;-3.936;2022-12-18T02:14:04;1.70;99.90
74384;DHT22;62824;52.994;-3.936;2022-12-18T02:27:35;1.50;99.90
74384;DHT22;62824;52.994;-3.936;2022-12-18T02:30:04;1.60;99.90
74384;DHT22;62824;52.994;-3.936;2022-12-18T02:32:37;1.60;99.90
74384;DHT22;62824;52.994;-3.936;2022-12-18T02:35:06;1.60;99.90
74384;DHT22;62824;52.994;-3.936;2022-12-18T02:37:34;1.60;99.90
74384;DHT22;62824;52.994;-3.936;2022-12-18T02:40:02;1.60;99.90
74384;DHT22;62824;52.994;-3.936;2022-12-18T02:42:29;1.60;99.90
74384;DHT22;62824;52.994;-3.936;2022-12-18T02:44:55;1.60;99.90
74384;DHT22;62824;52.994;-3.936;2022-12-18T02:47:24;1.60;99.90
74384;DHT22;62824;52.994;-3.936;2022-12-18T02:57:36;1.50;99.90
74384;DHT22;62824;52.994;-3.936;2022-12-18T03:08:23;1.70;99.90
74384;DHT22;62824;52.994;-3.936;2022-12-18T03:11:13;1.70;99.90
74384;DHT22;62824;52.994;-3.936;2022-12-18T03:16:37;1.70;99.90
74384;DHT22;62824;52.994;-3.936;2022-12-18T03:19:10;1.70;99.90
74384;DHT22;62824;52.994;-3.936;2022-12-18T03:21:52;1.70;99.90
74384;DHT22;62824;52.994;-3.936;2022-12-18T03:24:20;1.60;99.90
74384;DHT22;62824;52.994;-3.936;2022-12-18T03:26:51;1.70;99.90
74384;DHT22;62824;52.994;-3.936;2022-12-18T03:29:34;1.70;99.90
74384;DHT22;62824;52.994;-3.936;2022-12-18T03:32:28;1.70;99.90
74384;DHT22;62824;52.994;-3.936;2022-12-18T03:34:58;1.70;99.90
74384;DHT22;62824;52.994;-3.936;2022-12-18T03:37:25;1.60;99.90
74384;DHT22;62824;52.994;-3.936;2022-12-18T03:39:50;1.60;99.90
74384;DHT22;62824;52.994;-3.936;2022-12-18T03:42:37;1.70;99.90
74384;DHT22;62824;52.994;-3.936;2022-12-18T03:47:54;1.80;99.90
74384;DHT22;62824;52.994;-3.936;2022-12-18T03:50:41;1.90;99.90
74384;DHT22;62824;52.994;-3.936;2022-12-18T03:56:00;2.00;99.90
74384;DHT22;62824;52.994;-3.936;2022-12-18T03:58:28;2.10;99.90
74384;DHT22;62824;52.994;-3.936;2022-12-18T04:00:56;2.10;99.90
74384;DHT22;62824;52.994;-3.936;2022-12-18T04:03:25;2.10;99.90
74384;DHT22;62824;52.994;-3.936;2022-12-18T04:05:52;1.90;99.90
74384;DHT22;62824;52.994;-3.936;2022-12-18T04:08:20;1.80;99.90
74384;DHT22;62824;52.994;-3.936;2022-12-18T04:10:47;1.80;99.90
74384;DHT22;62824;52.994;-3.936;2022-12-18T04:13:27;1.70;99.90
74384;DHT22;62824;52.994;-3.936;2022-12-18T04:15:53;1.70;99.90
74384;DHT22;62824;52.994;-3.936;2022-12-18T04:18:19;1.70;99.90
74384;DHT22;62824;52.994;-3.936;2022-12-18T04:20:45;1.60;99.90
74384;DHT22;62824;52.994;-3.936;2022-12-18T04:23:11;1.70;99.90
74384;DHT22;62824;52.994;-3.936;2022-12-18T04:25:37;1.60;99.90
74384;DHT22;62824;52.994;-3.936;2022-12-18T04:28:02;1.50;99.90
74384;DHT22;62824;52.994;-3.936;2022-12-18T04:30:28;1.50;99.90
74384;DHT22;62824;52.994;-3.936;2022-12-18T04:32:54;1.50;99.90
74384;DHT22;62824;52.994;-3.936;2022-12-18T04:35:20;1.50;99.90
74384;DHT22;62824;52.994;-3.936;2022-12-18T04:37:45;1.50;99.90
74384;DHT22;62824;52.994;-3.936;2022-12-18T04:40:12;1.60;99.90
74384;DHT22;62824;52.994;-3.936;2022-12-18T04:42:39;1.80;99.90
74384;DHT22;62824;52.994;-3.936;2022-12-18T04:45:06;1.80;99.90
74384;DHT22;62824;52.994;-3.936;2022-12-18T04:47:32;1.90;99.90
74384;DHT22;62824;52.994;-3.936;2022-12-18T04:49:58;2.10;95.40
74384;DHT22;62824;52.994;-3.936;2022-12-18T04:52:24;2.10;98.60
74384;DHT22;62824;52.994;-3.936;2022-12-18T04:54:50;2.10;97.20
74384;DHT22;62824;52.994;-3.936;2022-12-18T04:57:16;2.20;99.30
74384;DHT22;62824;52.994;-3.936;2022-12-18T04:59:44;2.20;96.80
74384;DHT22;62824;52.994;-3.936;2022-12-18T05:02:10;2.30;94.90
74384;DHT22;62824;52.994;-3.936;2022-12-18T05:04:35;2.30;93.30
74384;DHT22;62824;52.994;-3.936;2022-12-18T05:07:01;2.30;92.50
74384;DHT22;62824;52.994;-3.936;2022-12-18T05:09:27;2.30;96.10
74384;DHT22;62824;52.994;-3.936;2022-12-18T05:11:53;2.30;96.10
74384;DHT22;62824;52.994;-3.936;2022-12-18T05:14:19;2.30;96.50
74384;DHT22;62824;52.994;-3.936;2022-12-18T05:16:45;2.30;94.80
74384;DHT22;62824;52.994;-3.936;2022-12-18T05:19:10;2.30;92.80
74384;DHT22;62824;52.994;-3.936;2022-12-18T05:21:36;2.30;92.20
74384;DHT22;62824;52.994;-3.936;2022-12-18T05:24:02;2.40;89.40
74384;DHT22;62824;52.994;-3.936;2022-12-18T05:26:28;2.40;90.80
74384;DHT22;62824;52.994;-3.936;2022-12-18T05:28:56;2.40;90.40
74384;DHT22;62824;52.994;-3.936;2022-12-18T05:31:22;2.50;89.80
74384;DHT22;62824;52.994;-3.936;2022-12-18T05:33:51;2.50;90.30
74384;DHT22;62824;52.994;-3.936;2022-12-18T05:36:17;2.50;88.00
74384;DHT22;62824;52.994;-3.936;2022-12-18T05:38:42;2.60;84.20
74384;DHT22;62824;52.994;-3.936;2022-12-18T05:41:09;2.60;84.90
74384;DHT22;62824;52.994;-3.936;2022-12-18T05:43:36;2.50;89.00
74384;DHT22;62824;52.994;-3.936;2022-12-18T05:46:12;2.50;89.80
74384;DHT22;62824;52.994;-3.936;2022-12-18T05:48:38;2.40;92.20
74384;DHT22;62824;52.994;-3.936;2022-12-18T05:51:10;2.30;95.70
74384;DHT22;62824;52.994;-3.936;2022-12-18T05:53:37;2.20;96.70
74384;DHT22;62824;52.994;-3.936;2022-12-18T05:56:04;2.20;97.30
74384;DHT22;62824;52.994;-3.936;2022-12-18T05:58:31;2.20;98.60
74384;DHT22;62824;52.994;-3.936;2022-12-18T06:00:58;2.20;99.90
74384;DHT22;62824;52.994;-3.936;2022-12-18T06:03:24;2.30;95.80
74384;DHT22;62824;52.994;-3.936;2022-12-18T06:05:49;2.20;96.30
74384;DHT22;62824;52.994;-3.936;2022-12-18T06:08:15;2.30;99.10
74384;DHT22;62824;52.994;-3.936;2022-12-18T06:10:41;2.30;99.90
74384;DHT22;62824;52.994;-3.936;2022-12-18T06:13:07;2.40;86.80
74384;DHT22;62824;52.994;-3.936;2022-12-18T06:15:36;2.50;81.70
74384;DHT22;62824;52.994;-3.936;2022-12-18T06:18:02;2.60;77.10
74384;DHT22;62824;52.994;-3.936;2022-12-18T06:20:31;2.60;85.40
74384;DHT22;62824;52.994;-3.936;2022-12-18T06:22:57;2.50;90.90
74384;DHT22;62824;52.994;-3.936;2022-12-18T06:25:23;2.50;93.80
74384;DHT22;62824;52.994;-3.936;2022-12-18T06:27:49;2.50;90.60
74384;DHT22;62824;52.994;-3.936;2022-12-18T06:30:14;2.50;94.80
74384;DHT22;62824;52.994;-3.936;2022-12-18T06:32:40;2.30;99.90
74384;DHT22;62824;52.994;-3.936;2022-12-18T06:35:22;2.30;99.90
74384;DHT22;62824;52.994;-3.936;2022-12-18T06:37:47;2.30;98.90
74384;DHT22;62824;52.994;-3.936;2022-12-18T06:40:22;2.20;97.90
74384;DHT22;62824;52.994;-3.936;2022-12-18T06:42:48;2.30;96.90
74384;DHT22;62824;52.994;-3.936;2022-12-18T06:45:17;2.30;97.20
74384;DHT22;62824;52.994;-3.936;2022-12-18T06:47:42;2.40;93.80
74384;DHT22;62824;52.994;-3.936;2022-12-18T06:50:08;2.50;92.40
74384;DHT22;62824;52.994;-3.936;2022-12-18T06:52:34;2.50;90.60
74384;DHT22;62824;52.994;-3.936;2022-12-18T06:55:00;2.60;86.60
74384;DHT22;62824;52.994;-3.936;2022-12-18T06:57:26;2.60;89.80
74384;DHT22;62824;52.994;-3.936;2022-12-18T06:59:52;2.60;95.00
74384;DHT22;62824;52.994;-3.936;2022-12-18T07:02:17;2.50;97.60
74384;DHT22;62824;52.994;-3.936;2022-12-18T07:04:43;2.50;98.50
74384;DHT22;62824;52.994;-3.936;2022-12-18T07:07:09;2.50;99.90
74384;DHT22;62824;52.994;-3.936;2022-12-18T07:09:34;2.50;90.30
74384;DHT22;62824;52.994;-3.936;2022-12-18T07:12:00;2.60;92.90
74384;DHT22;62824;52.994;-3.936;2022-12-18T07:14:26;2.60;91.30
74384;DHT22;62824;52.994;-3.936;2022-12-18T07:16:52;2.60;90.50
74384;DHT22;62824;52.994;-3.936;2022-12-18T07:19:17;2.70;86.60
74384;DHT22;62824;52.994;-3.936;2022-12-18T07:21:43;2.70;86.50
74384;DHT22;62824;52.994;-3.936;2022-12-18T07:24:09;2.80;86.20
74384;DHT22;62824;52.994;-3.936;2022-12-18T07:26:34;2.80;88.50
74384;DHT22;62824;52.994;-3.936;2022-12-18T07:29:00;2.80;90.10
74384;DHT22;62824;52.994;-3.936;2022-12-18T07:31:26;2.80;89.10
74384;DHT22;62824;52.994;-3.936;2022-12-18T07:33:52;2.90;91.20
74384;DHT22;62824;52.994;-3.936;2022-12-18T07:36:19;2.90;90.80
74384;DHT22;62824;52.994;-3.936;2022-12-18T07:38:47;2.90;91.70
74384;DHT22;62824;52.994;-3.936;2022-12-18T07:41:13;2.90;93.10
74384;DHT22;62824;52.994;-3.936;2022-12-18T07:43:41;2.90;92.50
74384;DHT22;62824;52.994;-3.936;2022-12-18T07:46:08;2.90;93.20
74384;DHT22;62824;52.994;-3.936;2022-12-18T07:48:34;2.90;94.20
74384;DHT22;62824;52.994;-3.936;2022-12-18T07:51:21;2.90;94.70
74384;DHT22;62824;52.994;-3.936;2022-12-18T07:53:47;2.90;95.70
74384;DHT22;62824;52.994;-3.936;2022-12-18T07:56:13;3.00;94.30
74384;DHT22;62824;52.994;-3.936;2022-12-18T07:58:39;3.00;92.10
74384;DHT22;62824;52.994;-3.936;2022-12-18T08:01:09;3.00;93.30
74384;DHT22;62824;52.994;-3.936;2022-12-18T08:03:35;3.00;94.10
74384;DHT22;62824;52.994;-3.936;2022-12-18T08:06:03;3.00;92.30
74384;DHT22;62824;52.994;-3.936;2022-12-18T08:08:30;3.10;93.80
74384;DHT22;62824;52.994;-3.936;2022-12-18T08:10:57;3.00;94.70
74384;DHT22;62824;52.994;-3.936;2022-12-18T08:13:24;3.00;94.30
74384;DHT22;62824;52.994;-3.936;2022-12-18T08:16:04;3.10;95.10
74384;DHT22;62824;52.994;-3.936;2022-12-18T08:18:35;3.10;96.80
74384;DHT22;62824;52.994;-3.936;2022-12-18T08:21:13;3.00;97.00
74384;DHT22;62824;52.994;-3.936;2022-12-18T08:23:40;3.00;97.70
74384;DHT22;62824;52.994;-3.936;2022-12-18T08:26:06;3.00;97.90
74384;DHT22;62824;52.994;-3.936;2022-12-18T08:28:33;3.00;99.20
74384;DHT22;62824;52.994;-3.936;2022-12-18T08:30:59;3.00;99.90
74384;DHT22;62824;52.994;-3.936;2022-12-18T08:33:24;3.00;99.90
74384;DHT22;62824;52.994;-3.936;2022-12-18T08:35:50;3.10;99.70
74384;DHT22;62824;52.994;-3.936;2022-12-18T08:38:16;3.00;99.70
74384;DHT22;62824;52.994;-3.936;2022-12-18T08:40:41;3.00;99.90
74384;DHT22;62824;52.994;-3.936;2022-12-18T08:43:09;3.00;99.90
74384;DHT22;62824;52.994;-3.936;2022-12-18T08:45:54;3.00;99.90
74384;DHT22;62824;52.994;-3.936;2022-12-18T08:48:20;3.00;99.90
74384;DHT22;62824;52.994;-3.936;2022-12-18T08:50:59;3.00;99.90
74384;DHT22;62824;52.994;-3.936;2022-12-18T08:53:25;3.00;99.90
74384;DHT22;62824;52.994;-3.936;2022-12-18T08:55:51;3.00;99.90
74384;DHT22;62824;52.994;-3.936;2022-12-18T08:58:17;3.00;99.90
74384;DHT22;62824;52.994;-3.936;2022-12-18T09:00:43;3.00;99.90
74384;DHT22;62824;52.994;-3.936;2022-12-18T09:03:17;3.00;99.90
74384;DHT22;62824;52.994;-3.936;2022-12-18T09:05:45;3.10;99.90
74384;DHT22;62824;52.994;-3.936;2022-12-18T09:08:11;3.10;99.90
74384;DHT22;62824;52.994;-3.936;2022-12-18T09:10:48;3.00;99.90
74384;DHT22;62824;52.994;-3.936;2022-12-18T09:13:15;3.00;99.90
74384;DHT22;62824;52.994;-3.936;2022-12-18T09:15:52;3.00;99.90
74384;DHT22;62824;52.994;-3.936;2022-12-18T09:18:20;3.00;99.90
74384;DHT22;62824;52.994;-3.936;2022-12-18T09:20:47;2.90;99.90
74384;DHT22;62824;52.994;-3.936;2022-12-18T09:23:12;3.00;99.90
74384;DHT22;62824;52.994;-3.936;2022-12-18T09:25:38;3.00;99.90
74384;DHT22;62824;52.994;-3.936;2022-12-18T09:28:16;3.00;99.90
74384;DHT22;62824;52.994;-3.936;2022-12-18T09:30:45;2.90;99.90
74384;DHT22;62824;52.994;-3.936;2022-12-18T09:33:11;3.00;99.90
74384;DHT22;62824;52.994;-3.936;2022-12-18T09:35:42;3.00;99.90
74384;DHT22;62824;52.994;-3.936;2022-12-18T09:38:11;3.10;99.90
74384;DHT22;62824;52.994;-3.936;2022-12-18T09:43:51;3.00;99.90
74384;DHT22;62824;52.994;-3.936;2022-12-18T09:46:27;3.10;99.90
74384;DHT22;62824;52.994;-3.936;2022-12-18T09:48:58;3.10;99.90
74384;DHT22;62824;52.994;-3.936;2022-12-18T09:51:47;3.10;99.90
74384;DHT22;62824;52.994;-3.936;2022-12-18T09:54:25;3.20;99.90
74384;DHT22;62824;52.994;-3.936;2022-12-18T09:56:53;3.20;99.90
74384;DHT22;62824;52.994;-3.936;2022-12-18T09:59:32;3.30;99.90
74384;DHT22;62824;52.994;-3.936;2022-12-18T10:01:59;3.20;99.90
74384;DHT22;62824;52.994;-3.936;2022-12-18T10:04:26;3.20;99.90
74384;DHT22;62824;52.994;-3.936;2022-12-18T10:07:13;3.20;99.90
74384;DHT22;62824;52.994;-3.936;2022-12-18T10:15:04;3.30;99.90
74384;DHT22;62824;52.994;-3.936;2022-12-18T10:23:36;3.40;99.90
74384;DHT22;62824;52.994;-3.936;2022-12-18T10:26:05;3.50;99.90
74384;DHT22;62824;52.994;-3.936;2022-12-18T10:28:34;3.40;99.90
74384;DHT22;62824;52.994;-3.936;2022-12-18T10:31:01;3.40;99.90
74384;DHT22;62824;52.994;-3.936;2022-12-18T10:33:31;3.40;99.90
74384;DHT22;62824;52.994;-3.936;2022-12-18T10:35:58;3.40;99.90
74384;DHT22;62824;52.994;-3.936;2022-12-18T10:38:28;3.40;99.90
74384;DHT22;62824;52.994;-3.936;2022-12-18T10:41:02;3.40;99.90
74384;DHT22;62824;52.994;-3.936;2022-12-18T10:43:36;3.40;99.90
74384;DHT22;62824;52.994;-3.936;2022-12-18T10:48:32;3.40;99.90
74384;DHT22;62824;52.994;-3.936;2022-12-18T10:50:58;3.40;99.90
74384;DHT22;62824;52.994;-3.936;2022-12-18T10:53:30;3.50;99.90
74384;DHT22;62824;52.994;-3.936;2022-12-18T10:56:02;3.50;99.90
74384;DHT22;62824;52.994;-3.936;2022-12-18T10:58:37;3.50;99.90
74384;DHT22;62824;52.994;-3.936;2022-12-18T11:01:13;3.60;99.90
74384;DHT22;62824;52.994;-3.936;2022-12-18T11:06:16;3.60;99.90
74384;DHT22;62824;52.994;-3.936;2022-12-18T11:08:46;3.60;99.90
74384;DHT22;62824;52.994;-3.936;2022-12-18T11:11:23;3.70;99.90
74384;DHT22;62824;52.994;-3.936;2022-12-18T11:14:02;3.80;99.90
74384;DHT22;62824;52.994;-3.936;2022-12-18T11:16:32;3.80;99.90
74384;DHT22;62824;52.994;-3.936;2022-12-18T11:21:47;3.80;99.90
74384;DHT22;62824;52.994;-3.936;2022-12-18T11:24:37;3.80;99.90
74384;DHT22;62824;52.994;-3.936;2022-12-18T11:27:05;3.80;99.90
74384;DHT22;62824;52.994;-3.936;2022-12-18T11:29:39;3.80;99.90
74384;DHT22;62824;52.994;-3.936;2022-12-18T11:32:29;3.80;99.90
74384;DHT22;62824;52.994;-3.936;2022-12-18T11:37:57;3.90;99.90
74384;DHT22;62824;52.994;-3.936;2022-12-18T11:40:37;3.90;99.90
74384;DHT22;62824;52.994;-3.936;2022-12-18T11:43:14;3.90;99.90
74384;DHT22;62824;52.994;-3.936;2022-12-18T11:45:49;3.90;99.90
74384;DHT22;62824;52.994;-3.936;2022-12-18T11:48:28;3.90;99.90
74384;DHT22;62824;52.994;-3.936;2022-12-18T11:50:57;3.90;99.90
74384;DHT22;62824;52.994;-3.936;2022-12-18T11:53:25;3.90;99.90
74384;DHT22;62824;52.994;-3.936;2022-12-18T12:01:48;4.00;99.90
74384;DHT22;62824;52.994;-3.936;2022-12-18T12:10:08;4.10;99.90
74384;DHT22;62824;52.994;-3.936;2022-12-18T12:12:52;4.10;99.90
74384;DHT22;62824;52.994;-3.936;2022-12-18T12:34:08;4.30;99.90
74384;DHT22;62824;52.994;-3.936;2022-12-18T12:39:54;4.30;99.90
74384;DHT22;62824;52.994;-3.936;2022-12-18T12:42:41;4.30;99.90
74384;DHT22;62824;52.994;-3.936;2022-12-18T12:45:34;4.40;99.90
74384;DHT22;62824;52.994;-3.936;2022-12-18T12:48:02;4.40;99.90
74384;DHT22;62824;52.994;-3.936;2022-12-18T12:50:50;4.40;99.90
74384;DHT22;62824;52.994;-3.936;2022-12-18T12:53:26;4.50;99.90
74384;DHT22;62824;52.994;-3.936;2022-12-18T12:55:55;4.50;99.90
74384;DHT22;62824;52.994;-3.936;2022-12-18T13:09:03;4.70;99.90
74384;DHT22;62824;52.994;-3.936;2022-12-18T13:14:23;4.80;99.90
74384;DHT22;62824;52.994;-3.936;2022-12-18T13:16:49;4.80;99.90
74384;DHT22;62824;52.994;-3.936;2022-12-18T13:19:26;4.80;99.90
74384;DHT22;62824;52.994;-3.936;2022-12-18T13:21:54;4.90;99.90
74384;DHT22;62824;52.994;-3.936;2022-12-18T13:24:26;4.90;99.90
74384;DHT22;62824;52.994;-3.936;2022-12-18T13:26:53;4.90;99.90
74384;DHT22;62824;52.994;-3.936;2022-12-18T13:29:54;5.00;99.90
74384;DHT22;62824;52.994;-3.936;2022-12-18T13:32:25;5.00;99.90
74384;DHT22;62824;52.994;-3.936;2022-12-18T13:37:44;4.90;99.90
74384;DHT22;62824;52.994;-3.936;2022-12-18T13:43:41;5.10;99.90
74384;DHT22;62824;52.994;-3.936;2022-12-18T13:46:30;5.10;99.90
74384;DHT22;62824;52.994;-3.936;2022-12-18T13:51:51;5.20;99.90
74384;DHT22;62824;52.994;-3.936;2022-12-18T13:54:23;5.20;99.90
74384;DHT22;62824;52.994;-3.936;2022-12-18T13:56:51;5.20;99.90
74384;DHT22;62824;52.994;-3.936;2022-12-18T13:59:25;5.20;99.90
74384;DHT22;62824;52.994;-3.936;2022-12-18T14:01:57;5.20;99.90
74384;DHT22;62824;52.994;-3.936;2022-12-18T14:04:26;5.20;99.90
74384;DHT22;62824;52.994;-3.936;2022-12-18T14:07:03;5.20;99.90
74384;DHT22;62824;52.994;-3.936;2022-12-18T14:09:33;5.30;99.90
74384;DHT22;62824;52.994;-3.936;2022-12-18T14:12:00;5.30;99.90
74384;DHT22;62824;52.994;-3.936;2022-12-18T14:14:47;5.30;99.90
74384;DHT22;62824;52.994;-3.936;2022-12-18T14:17:15;5.40;99.90
74384;DHT22;62824;52.994;-3.936;2022-12-18T14:19:45;5.40;99.90
74384;DHT22;62824;52.994;-3.936;2022-12-18T14:22:21;5.40;99.90
74384;DHT22;62824;52.994;-3.936;2022-12-18T14:25:24;5.40;99.90
74384;DHT22;62824;52.994;-3.936;2022-12-18T14:28:16;5.40;99.90
74384;DHT22;62824;52.994;-3.936;2022-12-18T14:34:41;5.50;99.90
74384;DHT22;62824;52.994;-3.936;2022-12-18T14:37:31;5.60;99.90
74384;DHT22;62824;52.994;-3.936;2022-12-18T14:40:00;5.60;99.90
74384;DHT22;62824;52.994;-3.936;2022-12-18T14:42:30;5.60;99.90
74384;DHT22;62824;52.994;-3.936;2022-12-18T14:45:34;5.60;99.90
74384;DHT22;62824;52.994;-3.936;2022-12-18T14:48:01;5.60;99.90
74384;DHT22;62824;52.994;-3.936;2022-12-18T14:50:32;5.60;99.90
74384;DHT22;62824;52.994;-3.936;2022-12-18T14:52:58;5.60;99.90
74384;DHT22;62824;52.994;-3.936;2022-12-18T14:55:24;5.70;99.90
74384;DHT22;62824;52.994;-3.936;2022-12-18T14:57:52;5.70;99.90
74384;DHT22;62824;52.994;-3.936;2022-12-18T15:00:22;5.80;99.90
74384;DHT22;62824;52.994;-3.936;2022-12-18T15:02:54;5.80;99.90
74384;DHT22;62824;52.994;-3.936;2022-12-18T15:05:25;5.80;99.90
74384;DHT22;62824;52.994;-3.936;2022-12-18T15:07:55;5.80;99.90
74384;DHT22;62824;52.994;-3.936;2022-12-18T15:10:26;5.80;99.90
74384;DHT22;62824;52.994;-3.936;2022-12-18T15:20:53;5.80;99.90
74384;DHT22;62824;52.994;-3.936;2022-12-18T15:28:47;5.80;99.90
74384;DHT22;62824;52.994;-3.936;2022-12-18T15:36:14;5.90;99.90
74384;DHT22;62824;52.994;-3.936;2022-12-18T15:38:41;5.90;99.90
74384;DHT22;62824;52.994;-3.936;2022-12-18T15:41:13;5.80;99.90
74384;DHT22;62824;52.994;-3.936;2022-12-18T15:43:39;5.90;99.90
74384;DHT22;62824;52.994;-3.936;2022-12-18T15:46:17;6.00;99.90
74384;DHT22;62824;52.994;-3.936;2022-12-18T15:48:51;6.00;99.90
74384;DHT22;62824;52.994;-3.936;2022-12-18T15:51:20;6.00;99.90
74384;DHT22;62824;52.994;-3.936;2022-12-18T15:53:52;6.00;99.90
74384;DHT22;62824;52.994;-3.936;2022-12-18T15:56:19;6.00;99.90
74384;DHT22;62824;52.994;-3.936;2022-12-18T15:59:12;6.00;99.90
74384;DHT22;62824;52.994;-3.936;2022-12-18T16:01:39;6.00;99.90
74384;DHT22;62824;52.994;-3.936;2022-12-18T16:04:06;6.00;99.90
74384;DHT22;62824;52.994;-3.936;2022-12-18T16:06:32;6.00;99.90
74384;DHT22;62824;52.994;-3.936;2022-12-18T16:08:57;5.90;99.90
74384;DHT22;62824;52.994;-3.936;2022-12-18T16:11:26;6.00;99.90
74384;DHT22;62824;52.994;-3.936;2022-12-18T16:14:12;5.90;99.90
74384;DHT22;62824;52.994;-3.936;2022-12-18T16:16:40;6.00;99.90
74384;DHT22;62824;52.994;-3.936;2022-12-18T16:19:07;6.00;99.90
74384;DHT22;62824;52.994;-3.936;2022-12-18T16:21:33;6.00;99.90
74384;DHT22;62824;52.994;-3.936;2022-12-18T16:23:59;6.00;99.90
74384;DHT22;62824;52.994;-3.936;2022-12-18T16:26:24;6.00;99.90
74384;DHT22;62824;52.994;-3.936;2022-12-18T16:28:50;6.00;99.90
74384;DHT22;62824;52.994;-3.936;2022-12-18T16:31:16;6.10;99.90
74384;DHT22;62824;52.994;-3.936;2022-12-18T16:33:42;6.10;99.90
74384;DHT22;62824;52.994;-3.936;2022-12-18T16:36:08;6.10;99.90
74384;DHT22;62824;52.994;-3.936;2022-12-18T16:38:33;6.10;99.90
74384;DHT22;62824;52.994;-3.936;2022-12-18T16:40:59;6.20;99.90
74384;DHT22;62824;52.994;-3.936;2022-12-18T16:43:44;6.20;99.90
74384;DHT22;62824;52.994;-3.936;2022-12-18T16:46:34;6.20;99.90
74384;DHT22;62824;52.994;-3.936;2022-12-18T16:49:11;6.20;99.90
74384;DHT22;62824;52.994;-3.936;2022-12-18T16:51:38;6.20;99.90
74384;DHT22;62824;52.994;-3.936;2022-12-18T16:54:03;6.20;99.90
74384;DHT22;62824;52.994;-3.936;2022-12-18T16:56:31;6.20;99.90
74384;DHT22;62824;52.994;-3.936;2022-12-18T16:58:58;6.30;99.90
74384;DHT22;62824;52.994;-3.936;2022-12-18T17:01:25;6.30;99.90
74384;DHT22;62824;52.994;-3.936;2022-12-18T17:03:56;6.30;99.90
74384;DHT22;62824;52.994;-3.936;2022-12-18T17:06:23;6.30;99.90
74384;DHT22;62824;52.994;-3.936;2022-12-18T17:08:55;6.30;99.90
74384;DHT22;62824;52.994;-3.936;2022-12-18T17:11:23;6.30;99.90
74384;DHT22;62824;52.994;-3.936;2022-12-18T17:13:49;6.40;99.90
74384;DHT22;62824;52.994;-3.936;2022-12-18T17:16:14;6.40;99.90
74384;DHT22;62824;52.994;-3.936;2022-12-18T17:18:42;6.50;99.90
74384;DHT22;62824;52.994;-3.936;2022-12-18T17:21:09;6.40;99.90
74384;DHT22;62824;52.994;-3.936;2022-12-18T17:23:35;6.40;99.90
74384;DHT22;62824;52.994;-3.936;2022-12-18T17:26:12;6.40;99.90
74384;DHT22;62824;52.994;-3.936;2022-12-18T17:28:39;6.40;99.90
74384;DHT22;62824;52.994;-3.936;2022-12-18T17:31:20;6.40;99.90
74384;DHT22;62824;52.994;-3.936;2022-12-18T17:33:57;6.40;99.90
74384;DHT22;62824;52.994;-3.936;2022-12-18T17:36:28;6.50;99.90
74384;DHT22;62824;52.994;-3.936;2022-12-18T17:38:57;6.50;99.90
74384;DHT22;62824;52.994;-3.936;2022-12-18T17:41:23;6.40;99.90
74384;DHT22;62824;52.994;-3.936;2022-12-18T17:43:51;6.50;99.90
74384;DHT22;62824;52.994;-3.936;2022-12-18T17:46:25;6.50;99.90
74384;DHT22;62824;52.994;-3.936;2022-12-18T17:52:04;6.50;99.90
74384;DHT22;62824;52.994;-3.936;2022-12-18T17:54:39;6.50;99.90
74384;DHT22;62824;52.994;-3.936;2022-12-18T17:57:06;6.60;99.90
74384;DHT22;62824;52.994;-3.936;2022-12-18T17:59:32;6.50;99.90
74384;DHT22;62824;52.994;-3.936;2022-12-18T18:01:58;6.70;99.90
74384;DHT22;62824;52.994;-3.936;2022-12-18T18:04:24;6.70;99.90
74384;DHT22;62824;52.994;-3.936;2022-12-18T18:06:49;6.80;99.90
74384;DHT22;62824;52.994;-3.936;2022-12-18T18:09:15;6.70;99.90
74384;DHT22;62824;52.994;-3.936;2022-12-18T18:11:41;6.70;99.90
74384;DHT22;62824;52.994;-3.936;2022-12-18T18:14:25;6.80;99.90
74384;DHT22;62824;52.994;-3.936;2022-12-18T18:16:51;6.80;99.90